Search for airport 
image banner adimage banner adimage banner ad
image banner ad

CL38 - Beta Platform Eureka

Located in Huntington Beach, United States

ICAO - CL38, IATA -

Data provided by Airmate  

General information

Coordinates: N33°35'0" W118°7'44"
Elevation is 123 feet MSL.
Magnetic variation is 14° East
View others Airports in California

Operational data

Special qualification required
Current time UTC:
Current local time:
Weather at : KSLI - Los Alamitos Aaf ( 24 km )
METAR: KSLI 141058Z AUTO 00000KT 10SM CLR 16/16 A2989 RMK AO2 SLP125 T01550155
TAF: TAF KSLI 140502Z 1405/1511 VRB06KT 9999 SKC QNH2982INS TX28/1423Z TN15/1413Z
View NOTAMs / SUP AIP / TFR affecting this airport [VIEW]
Communications frequencies: [VIEW]

Runways:

Airport contact information

Address: Huntington Beach United States

Satellite view of CL38